Ana Sayfa
METAR-TAF:

METAR-TAF

Havaalanları :

Paros, Yunanistan

Enlem: 37-01-15N, Boylam: 025-06-46E, yükseklik: 38 m

Güncel hava durumu gözlemi

Rapor saat 05:50 UTC de 1 saat ve 19 dakika önce yapıldı.
Rüzgar kuzeydan 6 kt
Sıcaklık 12°C
Nem 88%
Basınç 1018 hPa
Görüş mesafesi 10 km veya daha fazla
1600 ft yükseklikte az bulutlu

METAR: LGPA 250550Z 35006KT 9999 FEW016 12/10 Q1018

Saat: 09:09 (07:09 UTC)


TAF: eksik

4.000'den fazla havaalanı için hava durumu gözlemleri ve tahminleri (METAR ve TAF raporları).

Kullanılabilir istasyonlar harita üzerinde sarı ve kırmızı noktalarla gösterilir.

İstasyonun adını görmek için fareyi noktanın üzerinde gezdirin.

Sonrasında hava gözlem ve tahminlerini görmek için tıklayın.

Haritayı değiştirmek için: yaklaştırmak için siyah artı işaretli yeşil düğmeye ve uzaklaştırmak için de eksi işaretli düğmeye hızla tıklayın; bitişik haritalar için yeşil okları kullanın.


METAR-TAF: